sensor_id;sensor_type;location;lat;lon;timestamp;temperature;humidity
59651;DHT22;45954;49.768;8.636;2023-06-10T00:00:40;24.10;73.40
59651;DHT22;45954;49.768;8.636;2023-06-10T00:03:07;24.00;73.40
59651;DHT22;45954;49.768;8.636;2023-06-10T00:05:34;23.90;73.00
59651;DHT22;45954;49.768;8.636;2023-06-10T00:08:02;23.80;74.20
59651;DHT22;45954;49.768;8.636;2023-06-10T00:10:34;23.60;73.20
59651;DHT22;45954;49.768;8.636;2023-06-10T00:13:04;23.80;73.30
59651;DHT22;45954;49.768;8.636;2023-06-10T00:15:31;23.80;73.60
59651;DHT22;45954;49.768;8.636;2023-06-10T00:17:57;23.70;73.50
59651;DHT22;45954;49.768;8.636;2023-06-10T00:20:23;23.60;73.50
59651;DHT22;45954;49.768;8.636;2023-06-10T00:22:50;23.50;72.40
59651;DHT22;45954;49.768;8.636;2023-06-10T00:25:16;23.30;72.80
59651;DHT22;45954;49.768;8.636;2023-06-10T00:27:43;23.60;73.30
59651;DHT22;45954;49.768;8.636;2023-06-10T00:30:09;23.60;73.50
59651;DHT22;45954;49.768;8.636;2023-06-10T00:32:36;23.50;72.80
59651;DHT22;45954;49.768;8.636;2023-06-10T00:35:03;23.80;73.20
59651;DHT22;45954;49.768;8.636;2023-06-10T00:37:30;23.80;73.40
59651;DHT22;45954;49.768;8.636;2023-06-10T00:39:56;23.70;72.40
59651;DHT22;45954;49.768;8.636;2023-06-10T00:42:22;23.20;74.90
59651;DHT22;45954;49.768;8.636;2023-06-10T00:44:51;23.30;73.40
59651;DHT22;45954;49.768;8.636;2023-06-10T00:47:17;23.40;73.70
59651;DHT22;45954;49.768;8.636;2023-06-10T00:49:44;23.50;73.70
59651;DHT22;45954;49.768;8.636;2023-06-10T00:52:11;23.60;72.70
59651;DHT22;45954;49.768;8.636;2023-06-10T00:54:38;23.70;73.20
59651;DHT22;45954;49.768;8.636;2023-06-10T00:57:04;23.50;72.30
59651;DHT22;45954;49.768;8.636;2023-06-10T00:59:32;23.70;72.90
59651;DHT22;45954;49.768;8.636;2023-06-10T01:01:59;23.60;73.00
59651;DHT22;45954;49.768;8.636;2023-06-10T01:04:24;23.60;72.70
59651;DHT22;45954;49.768;8.636;2023-06-10T01:06:59;23.40;72.50
59651;DHT22;45954;49.768;8.636;2023-06-10T01:09:41;23.40;73.30
59651;DHT22;45954;49.768;8.636;2023-06-10T01:12:34;23.40;73.20
59651;DHT22;45954;49.768;8.636;2023-06-10T01:15:16;23.20;73.00
59651;DHT22;45954;49.768;8.636;2023-06-10T01:17:59;23.60;72.90
59651;DHT22;45954;49.768;8.636;2023-06-10T01:20:28;23.20;73.00
59651;DHT22;45954;49.768;8.636;2023-06-10T01:22:58;23.10;73.20
59651;DHT22;45954;49.768;8.636;2023-06-10T01:25:27;23.40;73.30
59651;DHT22;45954;49.768;8.636;2023-06-10T01:33:31;23.30;73.20
59651;DHT22;45954;49.768;8.636;2023-06-10T01:36:03;23.10;73.20
59651;DHT22;45954;49.768;8.636;2023-06-10T01:38:40;23.20;73.40
59651;DHT22;45954;49.768;8.636;2023-06-10T01:41:13;23.30;73.10
59651;DHT22;45954;49.768;8.636;2023-06-10T01:43:40;23.20;73.40
59651;DHT22;45954;49.768;8.636;2023-06-10T01:46:09;23.20;73.80
59651;DHT22;45954;49.768;8.636;2023-06-10T01:48:37;23.30;73.50
59651;DHT22;45954;49.768;8.636;2023-06-10T01:51:04;23.00;73.60
59651;DHT22;45954;49.768;8.636;2023-06-10T01:53:30;23.00;74.30
59651;DHT22;45954;49.768;8.636;2023-06-10T01:55:56;23.30;73.00
59651;DHT22;45954;49.768;8.636;2023-06-10T01:58:22;23.10;73.60
59651;DHT22;45954;49.768;8.636;2023-06-10T02:00:48;23.10;74.70
59651;DHT22;45954;49.768;8.636;2023-06-10T02:03:14;23.10;74.30
59651;DHT22;45954;49.768;8.636;2023-06-10T02:05:40;22.90;74.50
59651;DHT22;45954;49.768;8.636;2023-06-10T02:08:06;23.20;74.20
59651;DHT22;45954;49.768;8.636;2023-06-10T02:10:32;23.40;73.70
59651;DHT22;45954;49.768;8.636;2023-06-10T02:12:58;23.10;74.70
59651;DHT22;45954;49.768;8.636;2023-06-10T02:15:24;22.70;74.90
59651;DHT22;45954;49.768;8.636;2023-06-10T02:17:50;22.60;76.10
59651;DHT22;45954;49.768;8.636;2023-06-10T02:20:16;22.60;75.90
59651;DHT22;45954;49.768;8.636;2023-06-10T02:22:42;22.70;75.90
59651;DHT22;45954;49.768;8.636;2023-06-10T02:25:09;22.70;75.10
59651;DHT22;45954;49.768;8.636;2023-06-10T02:27:35;22.90;74.90
59651;DHT22;45954;49.768;8.636;2023-06-10T02:30:01;23.00;74.40
59651;DHT22;45954;49.768;8.636;2023-06-10T02:32:27;22.90;74.90
59651;DHT22;45954;49.768;8.636;2023-06-10T02:34:53;22.80;75.40
59651;DHT22;45954;49.768;8.636;2023-06-10T02:37:19;22.90;75.00
59651;DHT22;45954;49.768;8.636;2023-06-10T02:39:46;22.80;75.70
59651;DHT22;45954;49.768;8.636;2023-06-10T02:42:12;22.60;76.10
59651;DHT22;45954;49.768;8.636;2023-06-10T02:44:38;22.60;75.70
59651;DHT22;45954;49.768;8.636;2023-06-10T02:47:04;22.70;75.80
59651;DHT22;45954;49.768;8.636;2023-06-10T02:49:30;22.50;76.20
59651;DHT22;45954;49.768;8.636;2023-06-10T02:51:56;22.50;76.10
59651;DHT22;45954;49.768;8.636;2023-06-10T02:54:23;22.30;77.10
59651;DHT22;45954;49.768;8.636;2023-06-10T02:56:51;22.30;76.80
59651;DHT22;45954;49.768;8.636;2023-06-10T02:59:17;22.50;76.50
59651;DHT22;45954;49.768;8.636;2023-06-10T03:01:43;22.50;76.60
59651;DHT22;45954;49.768;8.636;2023-06-10T03:04:09;22.10;77.70
59651;DHT22;45954;49.768;8.636;2023-06-10T03:06:35;22.00;78.30
59651;DHT22;45954;49.768;8.636;2023-06-10T03:09:02;21.90;78.80
59651;DHT22;45954;49.768;8.636;2023-06-10T03:11:33;21.70;79.20
59651;DHT22;45954;49.768;8.636;2023-06-10T03:13:59;21.70;79.50
59651;DHT22;45954;49.768;8.636;2023-06-10T03:16:25;21.50;79.90
59651;DHT22;45954;49.768;8.636;2023-06-10T03:18:51;21.50;80.20
59651;DHT22;45954;49.768;8.636;2023-06-10T03:21:17;21.40;80.20
59651;DHT22;45954;49.768;8.636;2023-06-10T03:23:43;21.20;81.40
59651;DHT22;45954;49.768;8.636;2023-06-10T03:26:09;20.80;82.20
59651;DHT22;45954;49.768;8.636;2023-06-10T03:28:37;20.50;83.30
59651;DHT22;45954;49.768;8.636;2023-06-10T03:31:03;20.30;83.20
59651;DHT22;45954;49.768;8.636;2023-06-10T03:33:28;20.30;84.80
59651;DHT22;45954;49.768;8.636;2023-06-10T03:35:55;20.40;82.70
59651;DHT22;45954;49.768;8.636;2023-06-10T03:38:21;20.20;84.30
59651;DHT22;45954;49.768;8.636;2023-06-10T03:40:47;20.30;83.80
59651;DHT22;45954;49.768;8.636;2023-06-10T03:43:13;20.30;83.80
59651;DHT22;45954;49.768;8.636;2023-06-10T03:45:39;20.20;84.70
59651;DHT22;45954;49.768;8.636;2023-06-10T03:48:07;20.10;84.40
59651;DHT22;45954;49.768;8.636;2023-06-10T03:50:34;20.20;84.30
59651;DHT22;45954;49.768;8.636;2023-06-10T03:53:01;20.10;85.40
59651;DHT22;45954;49.768;8.636;2023-06-10T03:55:27;20.20;84.80
59651;DHT22;45954;49.768;8.636;2023-06-10T03:57:53;20.40;84.80
59651;DHT22;45954;49.768;8.636;2023-06-10T04:00:19;20.20;84.80
59651;DHT22;45954;49.768;8.636;2023-06-10T04:02:47;20.00;85.80
59651;DHT22;45954;49.768;8.636;2023-06-10T04:05:19;20.20;86.20
59651;DHT22;45954;49.768;8.636;2023-06-10T04:07:48;20.10;85.90
59651;DHT22;45954;49.768;8.636;2023-06-10T04:10:15;19.80;86.70
59651;DHT22;45954;49.768;8.636;2023-06-10T04:12:41;19.80;87.30
59651;DHT22;45954;49.768;8.636;2023-06-10T04:15:08;19.90;87.50
59651;DHT22;45954;49.768;8.636;2023-06-10T04:17:34;20.10;87.20
59651;DHT22;45954;49.768;8.636;2023-06-10T04:20:01;20.10;87.20
59651;DHT22;45954;49.768;8.636;2023-06-10T04:22:29;20.20;87.50
59651;DHT22;45954;49.768;8.636;2023-06-10T04:24:55;20.30;87.60
59651;DHT22;45954;49.768;8.636;2023-06-10T04:27:21;20.40;87.70
59651;DHT22;45954;49.768;8.636;2023-06-10T04:29:46;20.30;87.50
59651;DHT22;45954;49.768;8.636;2023-06-10T04:32:12;20.40;88.50
59651;DHT22;45954;49.768;8.636;2023-06-10T04:34:38;20.30;88.80
59651;DHT22;45954;49.768;8.636;2023-06-10T04:37:04;20.30;88.40
59651;DHT22;45954;49.768;8.636;2023-06-10T04:39:30;20.30;88.30
59651;DHT22;45954;49.768;8.636;2023-06-10T04:41:57;20.10;90.10
59651;DHT22;45954;49.768;8.636;2023-06-10T04:44:23;20.20;90.30
59651;DHT22;45954;49.768;8.636;2023-06-10T04:46:49;20.00;90.90
59651;DHT22;45954;49.768;8.636;2023-06-10T04:49:15;20.10;90.50
59651;DHT22;45954;49.768;8.636;2023-06-10T04:51:41;20.20;90.30
59651;DHT22;45954;49.768;8.636;2023-06-10T04:54:06;20.20;91.10
59651;DHT22;45954;49.768;8.636;2023-06-10T04:56:33;20.10;91.20
59651;DHT22;45954;49.768;8.636;2023-06-10T04:58:59;20.40;91.30
59651;DHT22;45954;49.768;8.636;2023-06-10T05:01:26;20.20;90.30
59651;DHT22;45954;49.768;8.636;2023-06-10T05:03:53;20.00;91.70
59651;DHT22;45954;49.768;8.636;2023-06-10T05:06:19;20.30;91.50
59651;DHT22;45954;49.768;8.636;2023-06-10T05:08:45;20.20;90.80
59651;DHT22;45954;49.768;8.636;2023-06-10T05:11:10;20.50;91.40
59651;DHT22;45954;49.768;8.636;2023-06-10T05:13:36;20.70;91.20
59651;DHT22;45954;49.768;8.636;2023-06-10T05:16:02;20.90;90.70
59651;DHT22;45954;49.768;8.636;2023-06-10T05:18:29;20.90;90.50
59651;DHT22;45954;49.768;8.636;2023-06-10T05:20:54;20.80;90.50
59651;DHT22;45954;49.768;8.636;2023-06-10T05:23:20;20.70;90.80
59651;DHT22;45954;49.768;8.636;2023-06-10T05:25:47;20.70;90.80
59651;DHT22;45954;49.768;8.636;2023-06-10T05:28:13;20.90;90.50
59651;DHT22;45954;49.768;8.636;2023-06-10T05:30:39;20.90;90.80
59651;DHT22;45954;49.768;8.636;2023-06-10T05:33:05;21.30;90.40
59651;DHT22;45954;49.768;8.636;2023-06-10T05:35:31;21.50;90.10
59651;DHT22;45954;49.768;8.636;2023-06-10T05:37:57;21.60;89.90
59651;DHT22;45954;49.768;8.636;2023-06-10T05:40:23;21.80;89.60
59651;DHT22;45954;49.768;8.636;2023-06-10T05:42:49;21.80;89.40
59651;DHT22;45954;49.768;8.636;2023-06-10T05:45:15;21.80;89.30
59651;DHT22;45954;49.768;8.636;2023-06-10T05:47:41;21.80;89.60
59651;DHT22;45954;49.768;8.636;2023-06-10T05:50:07;22.10;88.90
59651;DHT22;45954;49.768;8.636;2023-06-10T05:52:35;22.00;88.60
59651;DHT22;45954;49.768;8.636;2023-06-10T05:55:02;22.40;88.20
59651;DHT22;45954;49.768;8.636;2023-06-10T05:57:29;22.90;85.60
59651;DHT22;45954;49.768;8.636;2023-06-10T05:59:55;22.80;84.30
59651;DHT22;45954;49.768;8.636;2023-06-10T06:02:21;22.90;85.60
59651;DHT22;45954;49.768;8.636;2023-06-10T06:04:47;23.10;84.30
59651;DHT22;45954;49.768;8.636;2023-06-10T06:07:13;23.20;82.90
59651;DHT22;45954;49.768;8.636;2023-06-10T06:09:38;23.30;83.00
59651;DHT22;45954;49.768;8.636;2023-06-10T06:12:05;23.30;82.00
59651;DHT22;45954;49.768;8.636;2023-06-10T06:14:37;23.40;82.20
59651;DHT22;45954;49.768;8.636;2023-06-10T06:17:05;23.50;81.50
59651;DHT22;45954;49.768;8.636;2023-06-10T06:19:32;23.40;81.60
59651;DHT22;45954;49.768;8.636;2023-06-10T06:21:58;23.70;81.80
59651;DHT22;45954;49.768;8.636;2023-06-10T06:24:23;23.70;82.20
59651;DHT22;45954;49.768;8.636;2023-06-10T06:26:49;23.70;81.80
59651;DHT22;45954;49.768;8.636;2023-06-10T06:29:15;23.80;81.70
59651;DHT22;45954;49.768;8.636;2023-06-10T06:31:41;24.00;81.40
59651;DHT22;45954;49.768;8.636;2023-06-10T06:34:07;23.90;81.70
59651;DHT22;45954;49.768;8.636;2023-06-10T06:36:33;23.90;81.20
59651;DHT22;45954;49.768;8.636;2023-06-10T06:38:59;24.10;81.10
59651;DHT22;45954;49.768;8.636;2023-06-10T06:41:28;24.10;81.40
59651;DHT22;45954;49.768;8.636;2023-06-10T06:43:54;23.90;81.60
59651;DHT22;45954;49.768;8.636;2023-06-10T06:46:20;24.20;81.00
59651;DHT22;45954;49.768;8.636;2023-06-10T06:48:48;24.40;80.80
59651;DHT22;45954;49.768;8.636;2023-06-10T06:51:14;24.30;80.70
59651;DHT22;45954;49.768;8.636;2023-06-10T06:53:40;24.40;80.70
59651;DHT22;45954;49.768;8.636;2023-06-10T06:56:13;24.50;80.00
59651;DHT22;45954;49.768;8.636;2023-06-10T06:58:39;24.60;80.30
59651;DHT22;45954;49.768;8.636;2023-06-10T07:01:05;24.70;80.00
59651;DHT22;45954;49.768;8.636;2023-06-10T07:03:31;24.60;79.70
59651;DHT22;45954;49.768;8.636;2023-06-10T07:05:57;24.80;79.40
59651;DHT22;45954;49.768;8.636;2023-06-10T07:08:23;24.90;79.60
59651;DHT22;45954;49.768;8.636;2023-06-10T07:10:49;24.90;80.00
59651;DHT22;45954;49.768;8.636;2023-06-10T07:13:15;25.00;79.50
59651;DHT22;45954;49.768;8.636;2023-06-10T07:15:41;25.00;80.00
59651;DHT22;45954;49.768;8.636;2023-06-10T07:18:07;25.00;80.20
59651;DHT22;45954;49.768;8.636;2023-06-10T07:20:33;25.00;80.30
59651;DHT22;45954;49.768;8.636;2023-06-10T07:22:58;25.20;79.70
59651;DHT22;45954;49.768;8.636;2023-06-10T07:25:24;25.30;80.40
59651;DHT22;45954;49.768;8.636;2023-06-10T07:27:50;25.30;80.20
59651;DHT22;45954;49.768;8.636;2023-06-10T07:30:16;25.40;79.40
59651;DHT22;45954;49.768;8.636;2023-06-10T07:32:42;25.50;79.90
59651;DHT22;45954;49.768;8.636;2023-06-10T07:35:10;25.60;79.60
59651;DHT22;45954;49.768;8.636;2023-06-10T07:37:36;25.50;79.40
59651;DHT22;45954;49.768;8.636;2023-06-10T07:40:03;25.70;78.90
59651;DHT22;45954;49.768;8.636;2023-06-10T07:42:29;25.60;78.90
59651;DHT22;45954;49.768;8.636;2023-06-10T07:44:56;25.70;78.20
59651;DHT22;45954;49.768;8.636;2023-06-10T07:47:22;25.80;78.30
59651;DHT22;45954;49.768;8.636;2023-06-10T07:49:48;25.90;78.40
59651;DHT22;45954;49.768;8.636;2023-06-10T07:52:13;26.10;79.50
59651;DHT22;45954;49.768;8.636;2023-06-10T07:54:39;26.20;78.20
59651;DHT22;45954;49.768;8.636;2023-06-10T07:57:05;26.30;77.80
59651;DHT22;45954;49.768;8.636;2023-06-10T07:59:33;26.50;78.10
59651;DHT22;45954;49.768;8.636;2023-06-10T08:01:59;26.60;77.70
59651;DHT22;45954;49.768;8.636;2023-06-10T08:04:25;26.50;77.80
59651;DHT22;45954;49.768;8.636;2023-06-10T08:06:50;26.60;78.40
59651;DHT22;45954;49.768;8.636;2023-06-10T08:09:16;26.70;78.10
59651;DHT22;45954;49.768;8.636;2023-06-10T08:11:46;26.90;77.80
59651;DHT22;45954;49.768;8.636;2023-06-10T08:14:12;27.00;77.20
59651;DHT22;45954;49.768;8.636;2023-06-10T08:16:38;27.00;78.20
59651;DHT22;45954;49.768;8.636;2023-06-10T08:19:04;27.00;77.50
59651;DHT22;45954;49.768;8.636;2023-06-10T08:21:30;27.00;77.90
59651;DHT22;45954;49.768;8.636;2023-06-10T08:23:57;26.90;77.40
59651;DHT22;45954;49.768;8.636;2023-06-10T08:26:23;27.00;77.80
59651;DHT22;45954;49.768;8.636;2023-06-10T08:28:49;27.20;77.80
59651;DHT22;45954;49.768;8.636;2023-06-10T08:31:15;27.20;77.80
59651;DHT22;45954;49.768;8.636;2023-06-10T08:33:42;27.30;78.50
59651;DHT22;45954;49.768;8.636;2023-06-10T08:36:08;27.40;77.30
59651;DHT22;45954;49.768;8.636;2023-06-10T08:38:34;27.30;77.10
59651;DHT22;45954;49.768;8.636;2023-06-10T08:41:00;27.20;76.40
59651;DHT22;45954;49.768;8.636;2023-06-10T08:46:09;27.50;77.40
59651;DHT22;45954;49.768;8.636;2023-06-10T08:48:43;27.60;76.80
59651;DHT22;45954;49.768;8.636;2023-06-10T08:51:11;27.60;77.20
59651;DHT22;45954;49.768;8.636;2023-06-10T08:53:49;27.50;75.90
59651;DHT22;45954;49.768;8.636;2023-06-10T08:56:17;27.50;77.10
59651;DHT22;45954;49.768;8.636;2023-06-10T08:58:44;27.60;76.50
59651;DHT22;45954;49.768;8.636;2023-06-10T09:01:10;27.50;76.40
59651;DHT22;45954;49.768;8.636;2023-06-10T09:03:37;27.30;76.50
59651;DHT22;45954;49.768;8.636;2023-06-10T09:06:05;27.30;76.40
59651;DHT22;45954;49.768;8.636;2023-06-10T09:08:33;27.50;76.80
59651;DHT22;45954;49.768;8.636;2023-06-10T09:11:00;27.50;76.80
59651;DHT22;45954;49.768;8.636;2023-06-10T09:13:26;27.70;76.70
59651;DHT22;45954;49.768;8.636;2023-06-10T09:15:52;27.90;77.30
59651;DHT22;45954;49.768;8.636;2023-06-10T09:18:18;28.00;76.30
59651;DHT22;45954;49.768;8.636;2023-06-10T09:20:45;28.10;76.40
59651;DHT22;45954;49.768;8.636;2023-06-10T09:23:10;28.30;76.50
59651;DHT22;45954;49.768;8.636;2023-06-10T09:25:38;28.40;76.60
59651;DHT22;45954;49.768;8.636;2023-06-10T09:28:04;28.20;75.90
59651;DHT22;45954;49.768;8.636;2023-06-10T09:30:38;28.40;76.30
59651;DHT22;45954;49.768;8.636;2023-06-10T09:33:11;28.50;75.70
59651;DHT22;45954;49.768;8.636;2023-06-10T09:35:46;28.50;76.10
59651;DHT22;45954;49.768;8.636;2023-06-10T09:38:15;28.50;75.70
59651;DHT22;45954;49.768;8.636;2023-06-10T09:40:51;28.50;76.00
59651;DHT22;45954;49.768;8.636;2023-06-10T09:43:18;28.80;75.50
59651;DHT22;45954;49.768;8.636;2023-06-10T09:45:44;28.80;75.30
59651;DHT22;45954;49.768;8.636;2023-06-10T09:48:13;28.90;75.00
59651;DHT22;45954;49.768;8.636;2023-06-10T09:50:46;29.00;74.40
59651;DHT22;45954;49.768;8.636;2023-06-10T09:53:12;29.10;74.40
59651;DHT22;45954;49.768;8.636;2023-06-10T09:55:39;29.00;73.30
59651;DHT22;45954;49.768;8.636;2023-06-10T09:58:06;28.90;73.20
59651;DHT22;45954;49.768;8.636;2023-06-10T10:00:36;29.00;74.00
59651;DHT22;45954;49.768;8.636;2023-06-10T10:03:02;29.30;73.80
59651;DHT22;45954;49.768;8.636;2023-06-10T10:05:29;29.30;72.90
59651;DHT22;45954;49.768;8.636;2023-06-10T10:07:55;29.40;72.80
59651;DHT22;45954;49.768;8.636;2023-06-10T10:10:22;29.50;73.10
59651;DHT22;45954;49.768;8.636;2023-06-10T10:12:52;29.70;74.20
59651;DHT22;45954;49.768;8.636;2023-06-10T10:15:21;29.70;73.00
59651;DHT22;45954;49.768;8.636;2023-06-10T10:17:58;29.90;72.30
59651;DHT22;45954;49.768;8.636;2023-06-10T10:20:47;29.90;72.50
59651;DHT22;45954;49.768;8.636;2023-06-10T10:23:24;29.80;72.40
59651;DHT22;45954;49.768;8.636;2023-06-10T10:25:54;29.90;74.20
59651;DHT22;45954;49.768;8.636;2023-06-10T10:28:24;30.10;73.50
59651;DHT22;45954;49.768;8.636;2023-06-10T10:31:01;29.80;73.40
59651;DHT22;45954;49.768;8.636;2023-06-10T10:33:59;29.80;73.90
59651;DHT22;45954;49.768;8.636;2023-06-10T10:36:26;29.80;72.70
59651;DHT22;45954;49.768;8.636;2023-06-10T10:38:54;29.70;71.80
59651;DHT22;45954;49.768;8.636;2023-06-10T10:41:21;29.80;72.20
59651;DHT22;45954;49.768;8.636;2023-06-10T10:43:50;29.90;72.10
59651;DHT22;45954;49.768;8.636;2023-06-10T10:46:17;30.00;71.50
59651;DHT22;45954;49.768;8.636;2023-06-10T10:48:44;29.90;71.60
59651;DHT22;45954;49.768;8.636;2023-06-10T10:51:11;30.10;71.90
59651;DHT22;45954;49.768;8.636;2023-06-10T10:53:37;30.10;71.20
59651;DHT22;45954;49.768;8.636;2023-06-10T10:56:07;30.30;72.00
59651;DHT22;45954;49.768;8.636;2023-06-10T10:58:34;30.00;69.70
59651;DHT22;45954;49.768;8.636;2023-06-10T11:01:13;30.40;70.00
59651;DHT22;45954;49.768;8.636;2023-06-10T11:03:44;30.80;69.10
59651;DHT22;45954;49.768;8.636;2023-06-10T11:06:14;30.80;69.20
59651;DHT22;45954;49.768;8.636;2023-06-10T11:11:27;31.10;68.10
59651;DHT22;45954;49.768;8.636;2023-06-10T11:14:06;31.10;68.50
59651;DHT22;45954;49.768;8.636;2023-06-10T11:16:39;31.20;68.40
59651;DHT22;45954;49.768;8.636;2023-06-10T11:19:07;31.10;67.30
59651;DHT22;45954;49.768;8.636;2023-06-10T11:21:57;31.20;66.50
59651;DHT22;45954;49.768;8.636;2023-06-10T11:24:31;31.40;66.20
59651;DHT22;45954;49.768;8.636;2023-06-10T11:27:16;31.40;66.30
59651;DHT22;45954;49.768;8.636;2023-06-10T11:32:31;31.90;65.90
59651;DHT22;45954;49.768;8.636;2023-06-10T11:34:58;32.00;65.80
59651;DHT22;45954;49.768;8.636;2023-06-10T11:37:25;32.00;65.00
59651;DHT22;45954;49.768;8.636;2023-06-10T11:39:53;32.00;66.00
59651;DHT22;45954;49.768;8.636;2023-06-10T11:42:20;32.00;65.60
59651;DHT22;45954;49.768;8.636;2023-06-10T11:44:51;32.10;65.80
59651;DHT22;45954;49.768;8.636;2023-06-10T11:47:19;32.10;65.10
59651;DHT22;45954;49.768;8.636;2023-06-10T11:49:55;32.30;65.40
59651;DHT22;45954;49.768;8.636;2023-06-10T11:52:31;32.20;65.20
59651;DHT22;45954;49.768;8.636;2023-06-10T11:55:00;32.20;64.70
59651;DHT22;45954;49.768;8.636;2023-06-10T11:57:26;32.10;64.00
59651;DHT22;45954;49.768;8.636;2023-06-10T11:59:52;32.30;64.30
59651;DHT22;45954;49.768;8.636;2023-06-10T12:02:18;32.50;63.40
59651;DHT22;45954;49.768;8.636;2023-06-10T12:04:45;32.50;63.00
59651;DHT22;45954;49.768;8.636;2023-06-10T12:07:18;32.10;63.10
59651;DHT22;45954;49.768;8.636;2023-06-10T12:09:45;31.90;63.50
59651;DHT22;45954;49.768;8.636;2023-06-10T12:12:11;32.30;63.00
59651;DHT22;45954;49.768;8.636;2023-06-10T12:14:57;32.70;62.80
59651;DHT22;45954;49.768;8.636;2023-06-10T12:19:56;32.60;63.70
59651;DHT22;45954;49.768;8.636;2023-06-10T12:22:22;32.70;62.90
59651;DHT22;45954;49.768;8.636;2023-06-10T12:25:00;32.80;62.70
59651;DHT22;45954;49.768;8.636;2023-06-10T12:27:32;33.10;62.70
59651;DHT22;45954;49.768;8.636;2023-06-10T12:30:01;32.80;62.00
59651;DHT22;45954;49.768;8.636;2023-06-10T12:32:39;33.10;63.50
59651;DHT22;45954;49.768;8.636;2023-06-10T12:35:06;33.50;62.60
59651;DHT22;45954;49.768;8.636;2023-06-10T12:37:33;33.40;63.50
59651;DHT22;45954;49.768;8.636;2023-06-10T12:40:04;33.30;62.40
59651;DHT22;45954;49.768;8.636;2023-06-10T12:42:37;33.30;62.50
59651;DHT22;45954;49.768;8.636;2023-06-10T12:45:05;33.00;61.80
59651;DHT22;45954;49.768;8.636;2023-06-10T12:47:37;32.50;62.20
59651;DHT22;45954;49.768;8.636;2023-06-10T12:50:07;32.80;62.70
59651;DHT22;45954;49.768;8.636;2023-06-10T12:52:34;33.20;61.60
59651;DHT22;45954;49.768;8.636;2023-06-10T12:55:00;32.80;62.60
59651;DHT22;45954;49.768;8.636;2023-06-10T12:57:26;32.10;62.50
59651;DHT22;45954;49.768;8.636;2023-06-10T12:59:52;31.70;62.90
59651;DHT22;45954;49.768;8.636;2023-06-10T13:02:19;31.70;63.40
59651;DHT22;45954;49.768;8.636;2023-06-10T13:04:46;32.20;62.40
59651;DHT22;45954;49.768;8.636;2023-06-10T13:07:13;32.60;62.10
59651;DHT22;45954;49.768;8.636;2023-06-10T13:09:39;32.90;62.50
59651;DHT22;45954;49.768;8.636;2023-06-10T13:12:05;33.40;61.10
59651;DHT22;45954;49.768;8.636;2023-06-10T13:14:32;33.50;60.30
59651;DHT22;45954;49.768;8.636;2023-06-10T13:16:57;33.90;61.80
59651;DHT22;45954;49.768;8.636;2023-06-10T13:19:23;34.00;61.00
59651;DHT22;45954;49.768;8.636;2023-06-10T13:21:49;34.20;60.50
59651;DHT22;45954;49.768;8.636;2023-06-10T13:24:15;34.60;61.40
59651;DHT22;45954;49.768;8.636;2023-06-10T13:26:41;34.50;61.20
59651;DHT22;45954;49.768;8.636;2023-06-10T13:29:07;34.40;59.80
59651;DHT22;45954;49.768;8.636;2023-06-10T13:31:40;34.60;60.50
59651;DHT22;45954;49.768;8.636;2023-06-10T13:34:06;34.70;60.70
59651;DHT22;45954;49.768;8.636;2023-06-10T13:36:32;34.90;61.00
59651;DHT22;45954;49.768;8.636;2023-06-10T13:38:58;34.80;60.80
59651;DHT22;45954;49.768;8.636;2023-06-10T13:41:24;35.20;60.20
59651;DHT22;45954;49.768;8.636;2023-06-10T13:43:50;35.20;59.70
59651;DHT22;45954;49.768;8.636;2023-06-10T13:46:16;34.40;59.20
59651;DHT22;45954;49.768;8.636;2023-06-10T13:48:42;34.60;60.30
59651;DHT22;45954;49.768;8.636;2023-06-10T13:51:08;35.10;59.30
59651;DHT22;45954;49.768;8.636;2023-06-10T13:53:35;35.60;59.10
59651;DHT22;45954;49.768;8.636;2023-06-10T13:56:01;35.60;59.30
59651;DHT22;45954;49.768;8.636;2023-06-10T13:58:27;34.80;59.80
59651;DHT22;45954;49.768;8.636;2023-06-10T14:00:53;34.70;58.90
59651;DHT22;45954;49.768;8.636;2023-06-10T14:03:19;35.00;59.50
59651;DHT22;45954;49.768;8.636;2023-06-10T14:05:45;35.20;58.30
59651;DHT22;45954;49.768;8.636;2023-06-10T14:08:11;35.30;59.40
59651;DHT22;45954;49.768;8.636;2023-06-10T14:10:37;35.10;58.70
59651;DHT22;45954;49.768;8.636;2023-06-10T14:13:03;35.70;58.50
59651;DHT22;45954;49.768;8.636;2023-06-10T14:15:29;36.20;58.30
59651;DHT22;45954;49.768;8.636;2023-06-10T14:17:55;36.50;60.00
59651;DHT22;45954;49.768;8.636;2023-06-10T14:20:21;36.50;57.30
59651;DHT22;45954;49.768;8.636;2023-06-10T14:22:46;36.70;58.10
59651;DHT22;45954;49.768;8.636;2023-06-10T14:25:12;36.50;56.20
59651;DHT22;45954;49.768;8.636;2023-06-10T14:27:38;36.20;58.00
59651;DHT22;45954;49.768;8.636;2023-06-10T14:30:04;36.70;58.90
59651;DHT22;45954;49.768;8.636;2023-06-10T14:32:31;37.20;57.70
59651;DHT22;45954;49.768;8.636;2023-06-10T14:34:57;36.80;56.20
59651;DHT22;45954;49.768;8.636;2023-06-10T14:37:23;36.20;56.50
59651;DHT22;45954;49.768;8.636;2023-06-10T14:39:48;36.40;56.30
59651;DHT22;45954;49.768;8.636;2023-06-10T14:42:14;36.80;56.90
59651;DHT22;45954;49.768;8.636;2023-06-10T14:44:40;37.10;57.60
59651;DHT22;45954;49.768;8.636;2023-06-10T14:47:06;37.50;56.50
59651;DHT22;45954;49.768;8.636;2023-06-10T14:49:32;37.40;56.70
59651;DHT22;45954;49.768;8.636;2023-06-10T14:51:58;37.10;56.10
59651;DHT22;45954;49.768;8.636;2023-06-10T14:54:23;36.00;57.70
59651;DHT22;45954;49.768;8.636;2023-06-10T14:56:49;36.60;56.60
59651;DHT22;45954;49.768;8.636;2023-06-10T14:59:15;36.20;57.50
59651;DHT22;45954;49.768;8.636;2023-06-10T15:01:41;36.50;57.20
59651;DHT22;45954;49.768;8.636;2023-06-10T15:04:07;36.90;55.50
59651;DHT22;45954;49.768;8.636;2023-06-10T15:06:33;37.30;55.30
59651;DHT22;45954;49.768;8.636;2023-06-10T15:08:59;37.70;56.50
59651;DHT22;45954;49.768;8.636;2023-06-10T15:11:25;37.10;55.20
59651;DHT22;45954;49.768;8.636;2023-06-10T15:13:51;36.50;54.90
59651;DHT22;45954;49.768;8.636;2023-06-10T15:16:17;35.80;56.20
59651;DHT22;45954;49.768;8.636;2023-06-10T15:18:42;36.10;55.90
59651;DHT22;45954;49.768;8.636;2023-06-10T15:21:08;36.50;55.60
59651;DHT22;45954;49.768;8.636;2023-06-10T15:23:34;36.70;56.20
59651;DHT22;45954;49.768;8.636;2023-06-10T15:26:00;36.80;56.60
59651;DHT22;45954;49.768;8.636;2023-06-10T15:28:26;37.20;55.70
59651;DHT22;45954;49.768;8.636;2023-06-10T15:30:52;37.50;54.90
59651;DHT22;45954;49.768;8.636;2023-06-10T15:33:18;37.90;54.80
59651;DHT22;45954;49.768;8.636;2023-06-10T15:35:44;37.20;53.30
59651;DHT22;45954;49.768;8.636;2023-06-10T15:38:10;37.40;54.90
59651;DHT22;45954;49.768;8.636;2023-06-10T15:40:35;37.60;55.50
59651;DHT22;45954;49.768;8.636;2023-06-10T15:43:01;38.00;54.60
59651;DHT22;45954;49.768;8.636;2023-06-10T15:45:27;38.10;54.30
59651;DHT22;45954;49.768;8.636;2023-06-10T15:47:53;37.90;55.40